sensor_id;sensor_type;location;lat;lon;timestamp;temperature;humidity
17988;DHT22;9119;50.932;5.342;2023-05-14T00:01:50;16.00;99.90
17988;DHT22;9119;50.932;5.342;2023-05-14T00:04:16;16.00;99.90
17988;DHT22;9119;50.932;5.342;2023-05-14T00:06:44;16.10;99.90
17988;DHT22;9119;50.932;5.342;2023-05-14T00:09:10;16.30;99.90
17988;DHT22;9119;50.932;5.342;2023-05-14T00:11:36;16.30;99.90
17988;DHT22;9119;50.932;5.342;2023-05-14T00:14:02;16.30;99.90
17988;DHT22;9119;50.932;5.342;2023-05-14T00:16:28;16.20;99.90
17988;DHT22;9119;50.932;5.342;2023-05-14T00:18:53;16.20;99.90
17988;DHT22;9119;50.932;5.342;2023-05-14T00:21:19;16.10;99.90
17988;DHT22;9119;50.932;5.342;2023-05-14T00:23:45;16.00;99.90
17988;DHT22;9119;50.932;5.342;2023-05-14T00:26:10;15.90;99.90
17988;DHT22;9119;50.932;5.342;2023-05-14T00:28:36;15.90;99.90
17988;DHT22;9119;50.932;5.342;2023-05-14T00:31:02;15.90;99.90
17988;DHT22;9119;50.932;5.342;2023-05-14T00:33:28;15.90;99.90
17988;DHT22;9119;50.932;5.342;2023-05-14T00:35:53;15.90;99.90
17988;DHT22;9119;50.932;5.342;2023-05-14T00:38:19;16.00;99.90
17988;DHT22;9119;50.932;5.342;2023-05-14T00:40:45;16.20;99.90
17988;DHT22;9119;50.932;5.342;2023-05-14T00:43:17;16.10;99.90
17988;DHT22;9119;50.932;5.342;2023-05-14T00:45:43;16.00;99.90
17988;DHT22;9119;50.932;5.342;2023-05-14T00:48:09;16.00;99.90
17988;DHT22;9119;50.932;5.342;2023-05-14T00:50:35;16.00;99.90
17988;DHT22;9119;50.932;5.342;2023-05-14T00:53:01;15.90;99.90
17988;DHT22;9119;50.932;5.342;2023-05-14T00:55:29;15.80;99.90
17988;DHT22;9119;50.932;5.342;2023-05-14T00:57:57;15.70;99.90
17988;DHT22;9119;50.932;5.342;2023-05-14T01:00:23;15.70;99.90
17988;DHT22;9119;50.932;5.342;2023-05-14T01:02:49;15.40;99.90
17988;DHT22;9119;50.932;5.342;2023-05-14T01:05:15;15.30;99.90
17988;DHT22;9119;50.932;5.342;2023-05-14T01:10:31;15.30;99.90
17988;DHT22;9119;50.932;5.342;2023-05-14T01:13:26;15.30;99.90
17988;DHT22;9119;50.932;5.342;2023-05-14T01:15:57;15.30;99.90
17988;DHT22;9119;50.932;5.342;2023-05-14T01:18:24;15.30;99.90
17988;DHT22;9119;50.932;5.342;2023-05-14T01:20:53;15.30;99.90
17988;DHT22;9119;50.932;5.342;2023-05-14T01:23:19;15.20;99.90
17988;DHT22;9119;50.932;5.342;2023-05-14T01:25:44;15.20;99.90
17988;DHT22;9119;50.932;5.342;2023-05-14T01:28:18;15.10;99.90
17988;DHT22;9119;50.932;5.342;2023-05-14T01:30:56;15.10;99.90
17988;DHT22;9119;50.932;5.342;2023-05-14T01:33:25;15.30;99.90
17988;DHT22;9119;50.932;5.342;2023-05-14T01:35:53;15.00;99.90
17988;DHT22;9119;50.932;5.342;2023-05-14T01:38:19;15.30;99.90
17988;DHT22;9119;50.932;5.342;2023-05-14T01:40:46;15.40;99.90
17988;DHT22;9119;50.932;5.342;2023-05-14T01:43:14;15.40;99.90
17988;DHT22;9119;50.932;5.342;2023-05-14T01:45:41;15.40;99.90
17988;DHT22;9119;50.932;5.342;2023-05-14T01:48:06;15.30;99.90
17988;DHT22;9119;50.932;5.342;2023-05-14T01:50:32;15.30;99.90
17988;DHT22;9119;50.932;5.342;2023-05-14T01:52:58;15.20;99.90
17988;DHT22;9119;50.932;5.342;2023-05-14T01:55:24;15.20;99.90
17988;DHT22;9119;50.932;5.342;2023-05-14T01:57:53;15.10;99.90
17988;DHT22;9119;50.932;5.342;2023-05-14T02:00:23;15.10;99.90
17988;DHT22;9119;50.932;5.342;2023-05-14T02:02:52;15.10;99.90
17988;DHT22;9119;50.932;5.342;2023-05-14T02:05:18;15.10;99.90
17988;DHT22;9119;50.932;5.342;2023-05-14T02:07:43;15.10;99.90
17988;DHT22;9119;50.932;5.342;2023-05-14T02:10:09;15.10;99.90
17988;DHT22;9119;50.932;5.342;2023-05-14T02:12:35;15.10;99.90
17988;DHT22;9119;50.932;5.342;2023-05-14T02:15:02;15.00;99.90
17988;DHT22;9119;50.932;5.342;2023-05-14T02:17:28;14.90;99.90
17988;DHT22;9119;50.932;5.342;2023-05-14T02:19:54;14.80;99.90
17988;DHT22;9119;50.932;5.342;2023-05-14T02:22:19;14.60;99.90
17988;DHT22;9119;50.932;5.342;2023-05-14T02:24:45;14.80;99.90
17988;DHT22;9119;50.932;5.342;2023-05-14T02:27:11;14.80;99.90
17988;DHT22;9119;50.932;5.342;2023-05-14T02:29:37;14.70;99.90
17988;DHT22;9119;50.932;5.342;2023-05-14T02:32:04;14.60;99.90
17988;DHT22;9119;50.932;5.342;2023-05-14T02:34:29;14.50;99.90
17988;DHT22;9119;50.932;5.342;2023-05-14T02:36:55;14.30;99.90
17988;DHT22;9119;50.932;5.342;2023-05-14T02:39:21;14.30;99.90
17988;DHT22;9119;50.932;5.342;2023-05-14T02:41:46;14.20;99.90
17988;DHT22;9119;50.932;5.342;2023-05-14T02:44:12;14.00;99.90
17988;DHT22;9119;50.932;5.342;2023-05-14T02:46:38;13.90;99.90
17988;DHT22;9119;50.932;5.342;2023-05-14T02:49:04;13.80;99.90
17988;DHT22;9119;50.932;5.342;2023-05-14T02:51:29;13.70;99.90
17988;DHT22;9119;50.932;5.342;2023-05-14T02:53:55;13.80;99.90
17988;DHT22;9119;50.932;5.342;2023-05-14T02:56:21;13.80;99.90
17988;DHT22;9119;50.932;5.342;2023-05-14T02:58:47;13.90;99.90
17988;DHT22;9119;50.932;5.342;2023-05-14T03:01:12;13.90;99.90
17988;DHT22;9119;50.932;5.342;2023-05-14T03:03:38;13.90;99.90
17988;DHT22;9119;50.932;5.342;2023-05-14T03:06:04;13.80;99.90
17988;DHT22;9119;50.932;5.342;2023-05-14T03:08:30;13.70;99.90
17988;DHT22;9119;50.932;5.342;2023-05-14T03:10:56;13.80;99.90
17988;DHT22;9119;50.932;5.342;2023-05-14T03:13:21;13.70;99.90
17988;DHT22;9119;50.932;5.342;2023-05-14T03:15:47;13.60;99.90
17988;DHT22;9119;50.932;5.342;2023-05-14T03:18:13;13.60;99.90
17988;DHT22;9119;50.932;5.342;2023-05-14T03:20:39;13.50;99.90
17988;DHT22;9119;50.932;5.342;2023-05-14T03:23:05;13.50;99.90
17988;DHT22;9119;50.932;5.342;2023-05-14T03:25:31;13.30;99.90
17988;DHT22;9119;50.932;5.342;2023-05-14T03:27:56;13.40;99.90
17988;DHT22;9119;50.932;5.342;2023-05-14T03:30:22;13.30;99.90
17988;DHT22;9119;50.932;5.342;2023-05-14T03:32:48;13.30;99.90
17988;DHT22;9119;50.932;5.342;2023-05-14T03:35:14;13.20;99.90
17988;DHT22;9119;50.932;5.342;2023-05-14T03:37:40;13.20;99.90
17988;DHT22;9119;50.932;5.342;2023-05-14T03:40:06;13.30;99.90
17988;DHT22;9119;50.932;5.342;2023-05-14T03:42:31;13.30;99.90
17988;DHT22;9119;50.932;5.342;2023-05-14T03:44:57;13.30;99.90
17988;DHT22;9119;50.932;5.342;2023-05-14T03:47:23;13.40;99.90
17988;DHT22;9119;50.932;5.342;2023-05-14T03:49:49;13.50;99.90
17988;DHT22;9119;50.932;5.342;2023-05-14T03:52:15;13.50;99.90
17988;DHT22;9119;50.932;5.342;2023-05-14T03:54:41;13.40;99.90
17988;DHT22;9119;50.932;5.342;2023-05-14T03:57:06;13.50;99.90
17988;DHT22;9119;50.932;5.342;2023-05-14T03:59:32;13.50;99.90
17988;DHT22;9119;50.932;5.342;2023-05-14T04:01:58;13.30;99.90
17988;DHT22;9119;50.932;5.342;2023-05-14T04:04:23;13.10;99.90
17988;DHT22;9119;50.932;5.342;2023-05-14T04:06:49;12.90;99.90
17988;DHT22;9119;50.932;5.342;2023-05-14T04:09:15;12.80;99.90
17988;DHT22;9119;50.932;5.342;2023-05-14T04:11:40;12.80;99.90
17988;DHT22;9119;50.932;5.342;2023-05-14T04:14:06;12.90;99.90
17988;DHT22;9119;50.932;5.342;2023-05-14T04:16:32;12.90;99.90
17988;DHT22;9119;50.932;5.342;2023-05-14T04:19:00;13.00;99.90
17988;DHT22;9119;50.932;5.342;2023-05-14T04:21:26;12.90;99.90
17988;DHT22;9119;50.932;5.342;2023-05-14T04:23:52;12.90;99.90
17988;DHT22;9119;50.932;5.342;2023-05-14T04:26:18;12.80;99.90
17988;DHT22;9119;50.932;5.342;2023-05-14T04:28:44;12.80;99.90
17988;DHT22;9119;50.932;5.342;2023-05-14T04:31:10;12.90;99.90
17988;DHT22;9119;50.932;5.342;2023-05-14T04:33:35;12.90;99.90
17988;DHT22;9119;50.932;5.342;2023-05-14T04:36:01;12.80;99.90
17988;DHT22;9119;50.932;5.342;2023-05-14T04:38:27;12.80;99.90
17988;DHT22;9119;50.932;5.342;2023-05-14T04:40:52;12.90;99.90
17988;DHT22;9119;50.932;5.342;2023-05-14T04:43:18;12.90;99.90
17988;DHT22;9119;50.932;5.342;2023-05-14T04:45:43;12.90;99.90
17988;DHT22;9119;50.932;5.342;2023-05-14T04:48:10;12.90;99.90
17988;DHT22;9119;50.932;5.342;2023-05-14T04:50:35;12.90;99.90
17988;DHT22;9119;50.932;5.342;2023-05-14T04:53:01;12.90;99.90
17988;DHT22;9119;50.932;5.342;2023-05-14T04:55:27;12.90;99.90
17988;DHT22;9119;50.932;5.342;2023-05-14T04:57:53;12.80;99.90
17988;DHT22;9119;50.932;5.342;2023-05-14T05:00:19;12.90;99.90
17988;DHT22;9119;50.932;5.342;2023-05-14T05:02:46;12.80;99.90
17988;DHT22;9119;50.932;5.342;2023-05-14T05:05:12;12.80;99.90
17988;DHT22;9119;50.932;5.342;2023-05-14T05:07:37;12.90;99.90
17988;DHT22;9119;50.932;5.342;2023-05-14T05:10:03;12.90;99.90
17988;DHT22;9119;50.932;5.342;2023-05-14T05:12:29;12.90;99.90
17988;DHT22;9119;50.932;5.342;2023-05-14T05:14:58;13.00;99.90
17988;DHT22;9119;50.932;5.342;2023-05-14T05:17:24;12.90;99.90
17988;DHT22;9119;50.932;5.342;2023-05-14T05:19:49;13.00;99.90
17988;DHT22;9119;50.932;5.342;2023-05-14T05:22:15;13.00;99.90
17988;DHT22;9119;50.932;5.342;2023-05-14T05:24:41;12.80;99.90
17988;DHT22;9119;50.932;5.342;2023-05-14T05:27:07;12.80;99.90
17988;DHT22;9119;50.932;5.342;2023-05-14T05:29:33;12.90;99.90
17988;DHT22;9119;50.932;5.342;2023-05-14T05:31:59;12.90;99.90
17988;DHT22;9119;50.932;5.342;2023-05-14T05:34:25;13.00;99.90
17988;DHT22;9119;50.932;5.342;2023-05-14T05:36:51;13.10;99.90
17988;DHT22;9119;50.932;5.342;2023-05-14T05:39:16;13.20;99.90
17988;DHT22;9119;50.932;5.342;2023-05-14T05:41:42;13.30;99.90
17988;DHT22;9119;50.932;5.342;2023-05-14T05:44:08;13.20;99.90
17988;DHT22;9119;50.932;5.342;2023-05-14T05:46:34;13.20;99.90
17988;DHT22;9119;50.932;5.342;2023-05-14T05:49:00;13.30;99.90
17988;DHT22;9119;50.932;5.342;2023-05-14T05:51:25;13.30;99.90
17988;DHT22;9119;50.932;5.342;2023-05-14T05:53:51;13.50;99.90
17988;DHT22;9119;50.932;5.342;2023-05-14T05:56:17;13.60;99.90
17988;DHT22;9119;50.932;5.342;2023-05-14T05:58:42;13.70;99.90
17988;DHT22;9119;50.932;5.342;2023-05-14T06:01:08;13.80;99.90
17988;DHT22;9119;50.932;5.342;2023-05-14T06:03:34;13.90;99.90
17988;DHT22;9119;50.932;5.342;2023-05-14T06:05:59;14.00;99.90
17988;DHT22;9119;50.932;5.342;2023-05-14T06:08:25;14.20;99.90
17988;DHT22;9119;50.932;5.342;2023-05-14T06:10:51;14.00;99.90
17988;DHT22;9119;50.932;5.342;2023-05-14T06:13:17;13.60;99.90
17988;DHT22;9119;50.932;5.342;2023-05-14T06:15:43;13.60;99.90
17988;DHT22;9119;50.932;5.342;2023-05-14T06:18:08;13.80;99.90
17988;DHT22;9119;50.932;5.342;2023-05-14T06:20:34;13.70;99.90
17988;DHT22;9119;50.932;5.342;2023-05-14T06:23:00;13.80;99.90
17988;DHT22;9119;50.932;5.342;2023-05-14T06:25:25;13.80;99.90
17988;DHT22;9119;50.932;5.342;2023-05-14T06:27:51;13.90;99.90
17988;DHT22;9119;50.932;5.342;2023-05-14T06:30:17;14.00;99.90
17988;DHT22;9119;50.932;5.342;2023-05-14T06:32:42;14.00;99.90
17988;DHT22;9119;50.932;5.342;2023-05-14T06:35:08;14.20;99.90
17988;DHT22;9119;50.932;5.342;2023-05-14T06:37:34;14.20;99.90
17988;DHT22;9119;50.932;5.342;2023-05-14T06:40:00;14.00;99.90
17988;DHT22;9119;50.932;5.342;2023-05-14T06:42:26;14.00;99.90
17988;DHT22;9119;50.932;5.342;2023-05-14T06:44:52;14.00;99.90
17988;DHT22;9119;50.932;5.342;2023-05-14T06:47:18;14.30;99.90
17988;DHT22;9119;50.932;5.342;2023-05-14T06:49:44;14.70;99.90
17988;DHT22;9119;50.932;5.342;2023-05-14T06:52:10;15.00;99.90
17988;DHT22;9119;50.932;5.342;2023-05-14T06:54:36;15.10;99.90
17988;DHT22;9119;50.932;5.342;2023-05-14T06:57:02;14.80;99.90
17988;DHT22;9119;50.932;5.342;2023-05-14T06:59:28;14.90;99.90
17988;DHT22;9119;50.932;5.342;2023-05-14T07:01:53;15.30;99.90
17988;DHT22;9119;50.932;5.342;2023-05-14T07:04:19;15.30;99.90
17988;DHT22;9119;50.932;5.342;2023-05-14T07:06:45;15.50;99.90
17988;DHT22;9119;50.932;5.342;2023-05-14T07:09:11;15.60;99.90
17988;DHT22;9119;50.932;5.342;2023-05-14T07:11:37;15.60;99.90
17988;DHT22;9119;50.932;5.342;2023-05-14T07:14:03;15.60;99.90
17988;DHT22;9119;50.932;5.342;2023-05-14T07:16:29;15.70;99.90
17988;DHT22;9119;50.932;5.342;2023-05-14T07:18:54;15.70;99.90
17988;DHT22;9119;50.932;5.342;2023-05-14T07:21:20;15.70;99.90
17988;DHT22;9119;50.932;5.342;2023-05-14T07:23:46;15.30;99.90
17988;DHT22;9119;50.932;5.342;2023-05-14T07:26:11;15.60;99.90
17988;DHT22;9119;50.932;5.342;2023-05-14T07:28:37;15.80;99.90
17988;DHT22;9119;50.932;5.342;2023-05-14T07:31:03;16.10;99.90
17988;DHT22;9119;50.932;5.342;2023-05-14T07:33:34;15.90;99.90
17988;DHT22;9119;50.932;5.342;2023-05-14T07:36:00;15.80;99.90
17988;DHT22;9119;50.932;5.342;2023-05-14T07:38:26;16.00;99.90
17988;DHT22;9119;50.932;5.342;2023-05-14T07:40:52;16.10;99.90
17988;DHT22;9119;50.932;5.342;2023-05-14T07:43:18;16.00;99.90
17988;DHT22;9119;50.932;5.342;2023-05-14T07:45:44;16.40;99.90
17988;DHT22;9119;50.932;5.342;2023-05-14T07:48:10;16.00;99.90
17988;DHT22;9119;50.932;5.342;2023-05-14T07:50:36;16.10;99.90
17988;DHT22;9119;50.932;5.342;2023-05-14T07:53:02;16.20;99.90
17988;DHT22;9119;50.932;5.342;2023-05-14T07:55:28;16.30;99.90
17988;DHT22;9119;50.932;5.342;2023-05-14T07:57:53;16.20;99.90
17988;DHT22;9119;50.932;5.342;2023-05-14T08:00:19;16.20;99.90
17988;DHT22;9119;50.932;5.342;2023-05-14T08:02:45;16.40;99.90
17988;DHT22;9119;50.932;5.342;2023-05-14T08:05:11;16.50;99.90
17988;DHT22;9119;50.932;5.342;2023-05-14T08:07:37;16.70;99.90
17988;DHT22;9119;50.932;5.342;2023-05-14T08:10:02;16.60;99.90
17988;DHT22;9119;50.932;5.342;2023-05-14T08:12:28;16.50;99.90
17988;DHT22;9119;50.932;5.342;2023-05-14T08:14:54;16.50;99.90
17988;DHT22;9119;50.932;5.342;2023-05-14T08:17:20;16.60;99.90
17988;DHT22;9119;50.932;5.342;2023-05-14T08:19:46;16.50;99.90
17988;DHT22;9119;50.932;5.342;2023-05-14T08:22:12;16.70;99.90
17988;DHT22;9119;50.932;5.342;2023-05-14T08:24:38;16.80;99.90
17988;DHT22;9119;50.932;5.342;2023-05-14T08:27:04;16.70;99.90
17988;DHT22;9119;50.932;5.342;2023-05-14T08:29:29;16.30;99.90
17988;DHT22;9119;50.932;5.342;2023-05-14T08:31:55;16.40;99.90
17988;DHT22;9119;50.932;5.342;2023-05-14T08:34:21;16.90;99.90
17988;DHT22;9119;50.932;5.342;2023-05-14T08:36:47;17.10;99.90
17988;DHT22;9119;50.932;5.342;2023-05-14T08:39:12;17.30;99.90
17988;DHT22;9119;50.932;5.342;2023-05-14T08:41:39;16.90;99.90
17988;DHT22;9119;50.932;5.342;2023-05-14T08:44:17;16.90;99.90
17988;DHT22;9119;50.932;5.342;2023-05-14T08:46:44;16.80;99.90
17988;DHT22;9119;50.932;5.342;2023-05-14T08:51:43;17.20;99.90
17988;DHT22;9119;50.932;5.342;2023-05-14T08:54:12;17.60;99.90
17988;DHT22;9119;50.932;5.342;2023-05-14T08:56:43;18.00;99.90
17988;DHT22;9119;50.932;5.342;2023-05-14T08:59:10;18.00;99.90
17988;DHT22;9119;50.932;5.342;2023-05-14T09:01:37;18.10;99.90
17988;DHT22;9119;50.932;5.342;2023-05-14T09:04:05;18.20;99.90
17988;DHT22;9119;50.932;5.342;2023-05-14T09:06:36;18.40;99.90
17988;DHT22;9119;50.932;5.342;2023-05-14T09:09:03;18.60;99.90
17988;DHT22;9119;50.932;5.342;2023-05-14T09:11:28;18.50;99.90
17988;DHT22;9119;50.932;5.342;2023-05-14T09:13:54;18.70;99.90
17988;DHT22;9119;50.932;5.342;2023-05-14T09:16:20;19.30;99.90
17988;DHT22;9119;50.932;5.342;2023-05-14T09:18:49;19.30;99.90
17988;DHT22;9119;50.932;5.342;2023-05-14T09:21:17;19.40;99.90
17988;DHT22;9119;50.932;5.342;2023-05-14T09:23:43;19.80;99.90
17988;DHT22;9119;50.932;5.342;2023-05-14T09:26:10;19.80;99.90
17988;DHT22;9119;50.932;5.342;2023-05-14T09:28:39;19.70;99.90
17988;DHT22;9119;50.932;5.342;2023-05-14T09:31:08;20.10;99.90
17988;DHT22;9119;50.932;5.342;2023-05-14T09:33:33;20.10;99.90
17988;DHT22;9119;50.932;5.342;2023-05-14T09:36:00;19.60;99.90
17988;DHT22;9119;50.932;5.342;2023-05-14T09:38:32;19.30;99.90
17988;DHT22;9119;50.932;5.342;2023-05-14T09:40:59;19.50;99.90
17988;DHT22;9119;50.932;5.342;2023-05-14T09:43:25;19.90;99.90
17988;DHT22;9119;50.932;5.342;2023-05-14T09:45:54;19.80;99.90
17988;DHT22;9119;50.932;5.342;2023-05-14T09:48:20;19.50;99.90
17988;DHT22;9119;50.932;5.342;2023-05-14T09:50:46;19.80;99.90
17988;DHT22;9119;50.932;5.342;2023-05-14T09:53:13;19.60;99.90
17988;DHT22;9119;50.932;5.342;2023-05-14T09:55:39;19.80;99.90
17988;DHT22;9119;50.932;5.342;2023-05-14T09:58:05;20.10;99.90
17988;DHT22;9119;50.932;5.342;2023-05-14T10:00:34;20.00;99.90
17988;DHT22;9119;50.932;5.342;2023-05-14T10:03:05;19.60;99.90
17988;DHT22;9119;50.932;5.342;2023-05-14T10:05:35;19.50;99.90
17988;DHT22;9119;50.932;5.342;2023-05-14T10:08:06;19.90;99.90
17988;DHT22;9119;50.932;5.342;2023-05-14T10:10:34;20.40;99.90
17988;DHT22;9119;50.932;5.342;2023-05-14T10:13:12;20.20;99.90
17988;DHT22;9119;50.932;5.342;2023-05-14T10:18:49;21.10;99.90
17988;DHT22;9119;50.932;5.342;2023-05-14T10:21:19;21.30;99.90
17988;DHT22;9119;50.932;5.342;2023-05-14T10:23:47;21.80;99.90
17988;DHT22;9119;50.932;5.342;2023-05-14T10:26:14;21.70;99.90
17988;DHT22;9119;50.932;5.342;2023-05-14T10:28:40;21.20;99.90
17988;DHT22;9119;50.932;5.342;2023-05-14T10:31:08;21.00;99.90
17988;DHT22;9119;50.932;5.342;2023-05-14T10:33:46;22.00;99.90
17988;DHT22;9119;50.932;5.342;2023-05-14T10:36:12;22.70;99.90
17988;DHT22;9119;50.932;5.342;2023-05-14T10:38:38;23.10;99.90
17988;DHT22;9119;50.932;5.342;2023-05-14T10:41:12;23.60;99.90
17988;DHT22;9119;50.932;5.342;2023-05-14T10:43:40;23.50;99.90
17988;DHT22;9119;50.932;5.342;2023-05-14T10:46:07;23.20;99.90
17988;DHT22;9119;50.932;5.342;2023-05-14T10:48:34;23.40;99.90
17988;DHT22;9119;50.932;5.342;2023-05-14T10:51:01;23.40;99.90
17988;DHT22;9119;50.932;5.342;2023-05-14T10:56:11;23.60;99.90
17988;DHT22;9119;50.932;5.342;2023-05-14T10:58:39;24.10;99.90
17988;DHT22;9119;50.932;5.342;2023-05-14T11:01:06;24.80;99.90
17988;DHT22;9119;50.932;5.342;2023-05-14T11:03:44;24.20;99.90
17988;DHT22;9119;50.932;5.342;2023-05-14T11:06:11;23.60;99.90
17988;DHT22;9119;50.932;5.342;2023-05-14T11:08:38;22.80;99.90
17988;DHT22;9119;50.932;5.342;2023-05-14T11:11:05;22.80;99.90
17988;DHT22;9119;50.932;5.342;2023-05-14T11:13:31;23.10;99.90
17988;DHT22;9119;50.932;5.342;2023-05-14T11:16:00;22.70;99.90
17988;DHT22;9119;50.932;5.342;2023-05-14T11:18:27;22.60;99.90
17988;DHT22;9119;50.932;5.342;2023-05-14T11:20:59;22.80;99.90
17988;DHT22;9119;50.932;5.342;2023-05-14T11:23:26;23.40;99.90
17988;DHT22;9119;50.932;5.342;2023-05-14T11:25:52;24.10;99.90
17988;DHT22;9119;50.932;5.342;2023-05-14T11:28:22;25.00;99.90
17988;DHT22;9119;50.932;5.342;2023-05-14T11:30:49;24.60;99.90
17988;DHT22;9119;50.932;5.342;2023-05-14T11:33:16;24.30;99.90
17988;DHT22;9119;50.932;5.342;2023-05-14T11:35:42;25.00;99.90
17988;DHT22;9119;50.932;5.342;2023-05-14T11:38:16;25.10;99.90
17988;DHT22;9119;50.932;5.342;2023-05-14T11:40:50;25.40;99.90
17988;DHT22;9119;50.932;5.342;2023-05-14T11:43:17;25.90;99.90
17988;DHT22;9119;50.932;5.342;2023-05-14T11:45:48;26.00;99.90
17988;DHT22;9119;50.932;5.342;2023-05-14T11:48:15;25.80;99.90
17988;DHT22;9119;50.932;5.342;2023-05-14T11:50:50;25.50;99.90
17988;DHT22;9119;50.932;5.342;2023-05-14T11:53:26;25.20;99.90
17988;DHT22;9119;50.932;5.342;2023-05-14T11:55:53;24.60;99.90
17988;DHT22;9119;50.932;5.342;2023-05-14T11:58:19;24.70;99.90
17988;DHT22;9119;50.932;5.342;2023-05-14T12:00:45;25.20;99.90
17988;DHT22;9119;50.932;5.342;2023-05-14T12:03:14;24.30;99.90
17988;DHT22;9119;50.932;5.342;2023-05-14T12:05:40;23.10;99.90
17988;DHT22;9119;50.932;5.342;2023-05-14T12:08:25;23.00;99.90
17988;DHT22;9119;50.932;5.342;2023-05-14T12:10:56;23.20;99.90
17988;DHT22;9119;50.932;5.342;2023-05-14T12:13:28;24.30;99.90
17988;DHT22;9119;50.932;5.342;2023-05-14T12:15:55;24.80;99.90
17988;DHT22;9119;50.932;5.342;2023-05-14T12:18:23;23.90;99.90
17988;DHT22;9119;50.932;5.342;2023-05-14T12:20:49;23.90;99.90
17988;DHT22;9119;50.932;5.342;2023-05-14T12:23:23;23.60;99.90
17988;DHT22;9119;50.932;5.342;2023-05-14T12:26:04;23.60;99.90
17988;DHT22;9119;50.932;5.342;2023-05-14T12:28:38;23.40;99.90
17988;DHT22;9119;50.932;5.342;2023-05-14T12:31:07;23.30;99.90
17988;DHT22;9119;50.932;5.342;2023-05-14T12:33:33;22.90;99.90
17988;DHT22;9119;50.932;5.342;2023-05-14T12:35:59;22.40;99.90
17988;DHT22;9119;50.932;5.342;2023-05-14T12:38:28;21.90;99.90
17988;DHT22;9119;50.932;5.342;2023-05-14T12:41:05;21.60;99.90
17988;DHT22;9119;50.932;5.342;2023-05-14T12:43:31;21.30;99.90
17988;DHT22;9119;50.932;5.342;2023-05-14T12:45:56;21.40;99.90
17988;DHT22;9119;50.932;5.342;2023-05-14T12:48:22;21.50;99.90
17988;DHT22;9119;50.932;5.342;2023-05-14T12:50:48;21.40;99.90
17988;DHT22;9119;50.932;5.342;2023-05-14T12:53:13;22.10;99.90
17988;DHT22;9119;50.932;5.342;2023-05-14T12:55:40;23.10;99.90
17988;DHT22;9119;50.932;5.342;2023-05-14T12:58:06;23.90;99.90
17988;DHT22;9119;50.932;5.342;2023-05-14T13:00:32;24.50;99.90
17988;DHT22;9119;50.932;5.342;2023-05-14T13:02:57;24.90;99.90
17988;DHT22;9119;50.932;5.342;2023-05-14T13:05:23;25.40;99.90
17988;DHT22;9119;50.932;5.342;2023-05-14T13:07:50;25.30;99.90
17988;DHT22;9119;50.932;5.342;2023-05-14T13:10:16;25.30;99.90
17988;DHT22;9119;50.932;5.342;2023-05-14T13:12:43;25.10;99.90
17988;DHT22;9119;50.932;5.342;2023-05-14T13:15:09;24.50;99.90
17988;DHT22;9119;50.932;5.342;2023-05-14T13:17:35;24.30;99.90
17988;DHT22;9119;50.932;5.342;2023-05-14T13:20:01;24.50;99.90
17988;DHT22;9119;50.932;5.342;2023-05-14T13:22:26;24.60;99.90
17988;DHT22;9119;50.932;5.342;2023-05-14T13:24:52;24.20;99.90
17988;DHT22;9119;50.932;5.342;2023-05-14T13:27:18;24.00;99.90
17988;DHT22;9119;50.932;5.342;2023-05-14T13:29:44;23.70;99.90
17988;DHT22;9119;50.932;5.342;2023-05-14T13:32:09;23.90;99.90
17988;DHT22;9119;50.932;5.342;2023-05-14T13:35:02;23.60;99.90
17988;DHT22;9119;50.932;5.342;2023-05-14T13:37:30;23.70;99.90
17988;DHT22;9119;50.932;5.342;2023-05-14T13:40:03;24.10;99.90
17988;DHT22;9119;50.932;5.342;2023-05-14T13:42:29;24.20;99.90
17988;DHT22;9119;50.932;5.342;2023-05-14T13:44:57;23.80;99.90
17988;DHT22;9119;50.932;5.342;2023-05-14T13:47:24;23.70;99.90
17988;DHT22;9119;50.932;5.342;2023-05-14T13:49:53;24.20;99.90
17988;DHT22;9119;50.932;5.342;2023-05-14T13:52:19;25.00;99.90
17988;DHT22;9119;50.932;5.342;2023-05-14T13:54:46;25.70;99.90
17988;DHT22;9119;50.932;5.342;2023-05-14T13:57:11;24.80;99.90
17988;DHT22;9119;50.932;5.342;2023-05-14T13:59:37;23.90;99.90
17988;DHT22;9119;50.932;5.342;2023-05-14T14:02:04;24.60;99.90
17988;DHT22;9119;50.932;5.342;2023-05-14T14:04:29;25.40;99.90
17988;DHT22;9119;50.932;5.342;2023-05-14T14:06:56;25.80;99.90
17988;DHT22;9119;50.932;5.342;2023-05-14T14:09:22;25.90;99.90
17988;DHT22;9119;50.932;5.342;2023-05-14T14:11:48;24.90;99.90
17988;DHT22;9119;50.932;5.342;2023-05-14T14:14:14;24.70;99.90
17988;DHT22;9119;50.932;5.342;2023-05-14T14:16:40;23.90;99.90
17988;DHT22;9119;50.932;5.342;2023-05-14T14:19:05;24.40;99.90
17988;DHT22;9119;50.932;5.342;2023-05-14T14:21:31;24.90;99.90
17988;DHT22;9119;50.932;5.342;2023-05-14T14:23:57;24.40;99.90
17988;DHT22;9119;50.932;5.342;2023-05-14T14:26:23;24.00;99.90
17988;DHT22;9119;50.932;5.342;2023-05-14T14:28:49;23.60;99.90
17988;DHT22;9119;50.932;5.342;2023-05-14T14:31:15;23.50;99.90
17988;DHT22;9119;50.932;5.342;2023-05-14T14:33:41;23.90;99.90
17988;DHT22;9119;50.932;5.342;2023-05-14T14:36:07;24.30;99.90
17988;DHT22;9119;50.932;5.342;2023-05-14T14:38:33;23.80;99.90
17988;DHT22;9119;50.932;5.342;2023-05-14T14:40:59;23.80;99.90
17988;DHT22;9119;50.932;5.342;2023-05-14T14:43:27;23.20;99.90
17988;DHT22;9119;50.932;5.342;2023-05-14T14:45:53;23.50;99.90
17988;DHT22;9119;50.932;5.342;2023-05-14T14:48:26;24.00;99.90
17988;DHT22;9119;50.932;5.342;2023-05-14T14:50:53;24.30;99.90
17988;DHT22;9119;50.932;5.342;2023-05-14T14:53:20;24.00;99.90
17988;DHT22;9119;50.932;5.342;2023-05-14T14:55:47;22.90;99.90
17988;DHT22;9119;50.932;5.342;2023-05-14T14:58:13;23.00;99.90
17988;DHT22;9119;50.932;5.342;2023-05-14T15:00:39;23.00;99.90
17988;DHT22;9119;50.932;5.342;2023-05-14T15:03:05;23.50;99.90
17988;DHT22;9119;50.932;5.342;2023-05-14T15:05:33;23.30;99.90
17988;DHT22;9119;50.932;5.342;2023-05-14T15:07:59;23.30;99.90
17988;DHT22;9119;50.932;5.342;2023-05-14T15:10:29;23.70;99.90
17988;DHT22;9119;50.932;5.342;2023-05-14T15:12:58;24.00;99.90
17988;DHT22;9119;50.932;5.342;2023-05-14T15:15:24;23.90;99.90
17988;DHT22;9119;50.932;5.342;2023-05-14T15:17:50;23.60;99.90
17988;DHT22;9119;50.932;5.342;2023-05-14T15:20:16;24.00;99.90
17988;DHT22;9119;50.932;5.342;2023-05-14T15:22:42;23.50;99.90
17988;DHT22;9119;50.932;5.342;2023-05-14T15:25:08;23.90;99.90
17988;DHT22;9119;50.932;5.342;2023-05-14T15:27:35;23.60;99.90
17988;DHT22;9119;50.932;5.342;2023-05-14T15:30:01;23.60;99.90
17988;DHT22;9119;50.932;5.342;2023-05-14T15:32:27;23.40;99.90
17988;DHT22;9119;50.932;5.342;2023-05-14T15:34:56;23.40;99.90
17988;DHT22;9119;50.932;5.342;2023-05-14T15:37:25;23.10;99.90
17988;DHT22;9119;50.932;5.342;2023-05-14T15:39:51;22.60;99.90
17988;DHT22;9119;50.932;5.342;2023-05-14T15:42:17;22.50;99.90
17988;DHT22;9119;50.932;5.342;2023-05-14T15:44:43;22.70;99.90
17988;DHT22;9119;50.932;5.342;2023-05-14T15:47:09;22.70;99.90
17988;DHT22;9119;50.932;5.342;2023-05-14T15:49:35;22.80;99.90
17988;DHT22;9119;50.932;5.342;2023-05-14T15:52:01;22.80;99.90
17988;DHT22;9119;50.932;5.342;2023-05-14T15:54:27;22.30;99.90